Terminal Aerodrome Forecast
Issued by NWS Missoula, MT

Home | Current Version | Previous Version | Text Only | Print | Product List | Glossary On
Versions: 1 2 3 4 5 6 7 8 9 10 11 12 13 14 15
000
FTUS45 KMSO 220522
TAFGPI
TAF
KGPI 220522Z 2206/2306 34004KT P6SM SCT120
     FM221500 02010KT P6SM SCT070
     FM222300 03012G20KT P6SM SCT070=

USA.gov is the U.S. government's official web portal to all federal, state and local government web resources and services.